Time;durP1;ratioP1;P1;durP2;ratioP2;P2;SDS_P1;SDS_P2;PMS_P1;PMS_P2;Temp;Humidity;BMP_temperature;BMP_pressure;BME280_temperature;BME280_humidity;BME280_pressure;Samples;Min_cycle;Max_cycle;Signal;HPM_P1;HPM_P2
2023/08/06 13:13:15;;;;;;;7.00;2.50;;;;;;;15.17;100.00;100652.00;5069563;28;20394;-75
2023/08/06 13:15:41;;;;;;;7.03;2.40;;;;;;;15.21;100.00;100647.63;5076163;28;20530;-75
2023/08/06 13:18:06;;;;;;;8.40;2.10;;;;;;;15.27;100.00;100656.69;5088803;28;20031;-75
2023/08/06 13:20:32;;;;;;;5.93;2.03;;;;;;;15.27;100.00;100645.78;5088280;28;20091;-75
2023/08/06 13:23:00;;;;;;;7.32;2.08;;;;;;;15.27;100.00;100659.41;5069635;28;20025;-75
2023/08/06 13:25:26;;;;;;;5.82;2.00;;;;;;;15.27;100.00;100664.06;5068314;28;20021;-75
2023/08/06 13:27:51;;;;;;;5.65;2.00;;;;;;;15.27;100.00;100672.22;5069543;28;20078;-75
2023/08/06 13:30:19;;;;;;;8.23;2.38;;;;;;;15.24;100.00;100676.28;5060607;28;20400;-75
2023/08/06 13:32:45;;;;;;;8.10;2.38;;;;;;;15.22;100.00;100673.00;5048367;28;20052;-75
2023/08/06 13:35:10;;;;;;;10.40;2.22;;;;;;;15.19;100.00;100679.78;5048145;28;20393;-75
2023/08/06 13:37:35;;;;;;;10.45;2.40;;;;;;;15.16;100.00;100679.50;5050825;28;20027;-75
2023/08/06 13:40:01;;;;;;;6.15;2.30;;;;;;;15.07;100.00;100688.16;5048783;28;20029;-75
2023/08/06 13:42:26;;;;;;;5.57;2.95;;;;;;;14.91;100.00;100697.25;5049635;28;20059;-73
2023/08/06 13:44:52;;;;;;;8.90;2.97;;;;;;;14.84;100.00;100688.47;5049129;28;20095;-75
2023/08/06 13:47:18;;;;;;;7.53;2.70;;;;;;;14.76;100.00;100684.31;5069492;28;20078;-78
2023/08/06 13:49:43;;;;;;;5.68;2.00;;;;;;;14.71;100.00;100684.25;5069740;28;20512;-75
2023/08/06 13:52:08;;;;;;;5.90;2.08;;;;;;;14.72;100.00;100677.75;5069238;28;20028;-75
2023/08/06 13:54:33;;;;;;;4.40;2.00;;;;;;;14.79;100.00;100688.41;5068048;28;20094;-76
2023/08/06 13:56:59;;;;;;;4.13;2.05;;;;;;;14.88;100.00;100684.16;5051458;28;20025;-77
2023/08/06 13:59:24;;;;;;;6.45;2.17;;;;;;;14.92;100.00;100690.72;5048894;28;20036;-76
2023/08/06 14:01:51;;;;;;;4.10;2.25;;;;;;;14.98;100.00;100692.44;5037237;28;21801;-77
2023/08/06 14:04:16;;;;;;;7.10;2.33;;;;;;;15.06;100.00;100689.22;5028815;28;20097;-76
2023/08/06 14:06:42;;;;;;;6.43;2.15;;;;;;;15.14;100.00;100684.38;5029231;28;20414;-77
2023/08/06 14:09:07;;;;;;;10.98;2.40;;;;;;;15.18;100.00;100689.03;5029321;28;20491;-79
2023/08/06 14:11:33;;;;;;;4.18;2.30;;;;;;;15.25;100.00;100694.31;5027805;28;20439;-75
2023/08/06 14:14:00;;;;;;;5.32;1.95;;;;;;;15.25;100.00;100694.31;5027214;28;20044;-76
2023/08/06 14:16:25;;;;;;;6.07;2.20;;;;;;;15.29;100.00;100706.31;5027105;28;20057;-76
2023/08/06 14:18:50;;;;;;;3.22;1.90;;;;;;;15.30;100.00;100710.69;5029058;28;20049;-75
2023/08/06 14:21:16;;;;;;;4.95;1.90;;;;;;;15.37;100.00;100711.28;5028408;28;20029;-75
2023/08/06 14:23:41;;;;;;;3.03;1.70;;;;;;;15.36;100.00;100709.63;5020552;28;20026;-75
2023/08/06 14:26:07;;;;;;;4.03;1.75;;;;;;;15.36;100.00;100738.81;5014196;28;20049;-75
2023/08/06 14:28:32;;;;;;;3.20;1.70;;;;;;;15.33;100.00;100731.97;5015720;28;20445;-74
2023/08/06 14:30:57;;;;;;;5.70;1.75;;;;;;;15.29;100.00;100739.03;5011902;28;20053;-75
2023/08/06 14:33:23;;;;;;;2.78;1.55;;;;;;;15.25;100.00;100737.91;5011784;28;20108;-76
2023/08/06 14:35:48;;;;;;;3.70;1.50;;;;;;;15.22;100.00;100738.44;5008223;28;20022;-76
2023/08/06 14:38:13;;;;;;;3.97;1.73;;;;;;;15.24;100.00;100741.72;5013758;28;20030;-76
2023/08/06 14:40:40;;;;;;;4.03;1.80;;;;;;;15.27;100.00;100743.91;5014145;28;20028;-75
2023/08/06 14:43:05;;;;;;;4.55;1.70;;;;;;;15.35;100.00;100742.63;5015239;28;20030;-75
2023/08/06 14:45:31;;;;;;;4.43;1.75;;;;;;;15.37;100.00;100737.75;5014025;28;20088;-75
2023/08/06 14:47:56;;;;;;;2.55;1.60;;;;;;;15.37;100.00;100746.75;5014771;28;20073;-75
2023/08/06 14:50:22;;;;;;;2.35;1.60;;;;;;;15.38;100.00;100751.13;5015324;28;20033;-78
2023/08/06 14:52:47;;;;;;;5.30;2.00;;;;;;;15.38;100.00;100759.31;5014423;28;20053;-75
2023/08/06 14:55:22;;;;;;;3.85;1.90;;;;;;;15.35;100.00;100765.28;5014704;28;20030;-75
2023/08/06 14:57:48;;;;;;;2.80;1.50;;;;;;;15.29;100.00;100777.19;5017843;28;20036;-75
2023/08/06 15:00:13;;;;;;;2.05;1.40;;;;;;;15.18;100.00;100781.72;5034511;28;20030;-75
2023/08/06 15:02:38;;;;;;;2.85;1.20;;;;;;;15.06;100.00;100787.31;5009524;28;20045;-76
2023/08/06 15:05:04;;;;;;;4.35;1.40;;;;;;;14.98;100.00;100786.97;5013419;28;20036;-77
2023/08/06 15:07:33;;;;;;;3.08;1.20;;;;;;;14.86;100.00;100801.56;5010499;28;20029;-76
2023/08/06 15:09:58;;;;;;;2.75;1.27;;;;;;;14.78;100.00;100804.75;4995153;28;20034;-75
2023/08/06 15:12:23;;;;;;;2.08;1.13;;;;;;;14.73;100.00;100809.28;4995527;28;20369;-76
2023/08/06 15:14:49;;;;;;;3.50;1.25;;;;;;;14.60;100.00;100821.34;4995337;28;20034;-76
2023/08/06 15:17:14;;;;;;;1.80;1.38;;;;;;;14.54;100.00;100821.28;5004834;28;20062;-75
2023/08/06 15:19:39;;;;;;;2.60;1.10;;;;;;;14.45;100.00;100816.53;5006426;28;20057;-76
2023/08/06 15:22:05;;;;;;;2.25;1.13;;;;;;;14.45;100.00;100822.00;5013265;28;20030;-78
2023/08/06 15:24:30;;;;;;;2.28;1.02;;;;;;;14.44;100.00;100825.78;5014358;28;20033;-79
2023/08/06 15:26:55;;;;;;;3.90;1.75;;;;;;;14.40;100.00;100832.78;5015231;28;20029;-77
2023/08/06 15:29:21;;;;;;;2.58;1.13;;;;;;;14.30;100.00;100834.31;5014921;28;20026;-80
2023/08/06 15:31:46;;;;;;;5.80;2.10;;;;;;;14.32;100.00;100834.06;5013678;28;20052;-82
2023/08/06 15:34:11;;;;;;;3.60;1.13;;;;;;;14.28;100.00;100839.19;5013105;28;20124;-78
2023/08/06 15:36:37;;;;;;;3.50;1.38;;;;;;;14.35;100.00;100834.38;5009285;28;20368;-79
2023/08/06 15:39:04;;;;;;;4.45;1.40;;;;;;;14.31;100.00;100841.41;5012670;28;20045;-82
2023/08/06 15:41:29;;;;;;;3.22;1.42;;;;;;;14.28;100.00;100860.97;5012984;28;20022;-75
2023/08/06 15:43:55;;;;;;;4.63;1.50;;;;;;;14.26;100.00;100846.75;5012012;28;20559;-77
2023/08/06 15:46:20;;;;;;;2.88;1.35;;;;;;;14.26;100.00;100856.81;5014168;28;20433;-82
2023/08/06 15:48:46;;;;;;;3.72;1.33;;;;;;;14.36;100.00;100873.31;5012547;28;20022;-81
2023/08/06 15:51:11;;;;;;;6.90;1.70;;;;;;;14.27;100.00;100867.47;5013186;28;20025;-80
2023/08/06 15:53:37;;;;;;;5.38;1.45;;;;;;;14.24;100.00;100891.66;5012564;28;20469;-77
2023/08/06 15:56:03;;;;;;;2.78;1.10;;;;;;;14.14;100.00;100882.22;5012951;28;20109;-77
2023/08/06 15:58:28;;;;;;;2.42;1.27;;;;;;;14.00;100.00;100884.44;5023980;28;20021;-77
2023/08/06 16:00:53;;;;;;;5.07;1.10;;;;;;;13.94;100.00;100893.59;5027750;28;20376;-77
2023/08/06 16:03:18;;;;;;;2.85;1.05;;;;;;;13.87;100.00;100892.94;5013842;28;20414;-77
2023/08/06 16:05:44;;;;;;;4.80;1.20;;;;;;;13.84;100.00;100904.31;5012645;28;20445;-76
2023/08/06 16:08:09;;;;;;;3.83;1.10;;;;;;;13.82;100.00;100906.47;5011674;28;20112;-77
2023/08/06 16:10:34;;;;;;;3.00;1.13;;;;;;;13.84;100.00;100915.19;5012124;28;20424;-77
2023/08/06 16:13:00;;;;;;;3.17;1.00;;;;;;;13.77;100.00;100914.53;5013920;28;20080;-77
2023/08/06 16:15:25;;;;;;;3.00;1.10;;;;;;;13.79;100.00;100917.84;5013984;28;20109;-77
2023/08/06 16:17:50;;;;;;;2.53;1.17;;;;;;;13.74;100.00;100931.31;5013970;28;20022;-76
2023/08/06 16:20:16;;;;;;;3.47;1.20;;;;;;;13.79;100.00;100929.53;5017516;28;20473;-76
2023/08/06 16:22:41;;;;;;;4.18;1.30;;;;;;;13.76;100.00;100935.44;5020266;28;20077;-77
2023/08/06 16:25:11;;;;;;;5.10;1.50;;;;;;;13.74;100.00;100936.75;5011144;28;20062;-80
2023/08/06 16:27:37;;;;;;;6.85;1.80;;;;;;;13.75;100.00;100955.59;5017899;28;20481;-75
2023/08/06 16:30:03;;;;;;;3.55;1.30;;;;;;;13.71;100.00;100945.41;5018610;28;20027;-77
2023/08/06 16:32:28;;;;;;;3.83;1.35;;;;;;;13.60;100.00;100964.28;5012152;28;20159;-75
2023/08/06 16:34:53;;;;;;;4.40;1.20;;;;;;;13.59;100.00;100951.75;5011977;28;20064;-76
2023/08/06 16:37:19;;;;;;;4.88;1.50;;;;;;;13.59;100.00;100957.19;5012517;28;20497;-76
2023/08/06 16:39:44;;;;;;;5.95;1.90;;;;;;;13.56;100.00;100965.81;5009346;28;20057;-76
2023/08/06 16:42:11;;;;;;;5.18;1.70;;;;;;;13.55;100.00;100977.75;5013161;28;20028;-78
2023/08/06 16:44:37;;;;;;;6.65;1.90;;;;;;;13.56;100.00;100978.59;5011198;28;20435;-76
2023/08/06 16:47:03;;;;;;;7.05;1.90;;;;;;;13.51;100.00;100971.13;5012596;28;20057;-74
2023/08/06 16:49:28;;;;;;;9.02;2.17;;;;;;;13.56;100.00;100976.69;5012150;28;20040;-76
2023/08/06 16:51:54;;;;;;;10.18;2.28;;;;;;;13.53;100.00;100993.50;5022366;28;20029;-76
2023/08/06 16:54:19;;;;;;;9.80;2.30;;;;;;;13.43;100.00;100985.94;5022404;28;20033;-77
2023/08/06 16:56:44;;;;;;;10.13;2.10;;;;;;;13.36;100.00;100988.00;5019690;28;20047;-75
2023/08/06 16:59:09;;;;;;;6.13;1.85;;;;;;;13.28;100.00;101010.88;5020293;28;20524;-75
2023/08/06 17:01:36;;;;;;;8.98;2.20;;;;;;;13.26;100.00;100985.84;5019430;28;20060;-72
2023/08/06 17:04:01;;;;;;;7.30;2.00;;;;;;;13.29;100.00;100993.50;5048959;28;20028;-79
2023/08/06 17:06:26;;;;;;;9.82;2.50;;;;;;;13.38;100.00;100990.47;5019011;28;20030;-72
2023/08/06 17:08:52;;;;;;;10.45;2.60;;;;;;;13.43;100.00;100996.00;5032891;28;20021;-75
2023/08/06 17:11:17;;;;;;;7.28;2.10;;;;;;;13.40;100.00;101001.91;5013441;28;20049;-73
2023/08/06 17:13:42;;;;;;;8.70;2.22;;;;;;;13.49;100.00;101000.47;5012323;28;20137;-73
2023/08/06 17:16:08;;;;;;;10.38;2.53;;;;;;;13.47;100.00;101008.06;5014284;28;20448;-75
2023/08/06 17:18:33;;;;;;;7.35;2.28;;;;;;;13.50;100.00;101012.16;5029112;28;20026;-72
2023/08/06 17:21:02;;;;;;;8.80;2.13;;;;;;;13.51;100.00;101014.63;5013750;28;20040;-73
2023/08/06 17:23:27;;;;;;;11.05;2.65;;;;;;;13.50;100.00;101013.00;5013360;28;20085;-75
2023/08/06 17:25:54;;;;;;;7.97;2.20;;;;;;;13.53;100.00;101022.56;5016336;28;20023;-73
2023/08/06 17:28:20;;;;;;;12.18;2.67;;;;;;;13.51;100.00;101025.50;5031367;28;20037;-77
2023/08/06 17:30:45;;;;;;;9.95;2.85;;;;;;;13.56;100.00;101027.53;5028055;28;20463;-78
2023/08/06 17:33:11;;;;;;;9.48;2.70;;;;;;;13.57;100.00;101030.00;5030402;28;20248;-76
2023/08/06 17:35:41;;;;;;;7.55;2.30;;;;;;;13.51;100.00;101030.94;5030920;28;20071;-74
2023/08/06 17:38:06;;;;;;;8.07;2.42;;;;;;;13.52;100.00;101038.03;5031397;28;20032;-71
2023/08/06 17:40:31;;;;;;;10.63;2.38;;;;;;;13.61;100.00;101047.47;5029810;28;20026;-74
2023/08/06 17:42:56;;;;;;;13.10;2.90;;;;;;;13.58;100.00;101039.81;5033886;28;20026;-77
2023/08/06 17:45:22;;;;;;;10.60;2.67;;;;;;;13.62;100.00;101051.84;5047636;28;20030;-76
2023/08/06 17:47:48;;;;;;;10.88;2.70;;;;;;;13.63;100.00;101049.94;5043131;28;20025;-76
2023/08/06 17:50:14;;;;;;;11.60;2.55;;;;;;;13.62;100.00;101043.69;5029144;28;20052;-76
2023/08/06 17:52:39;;;;;;;10.27;2.40;;;;;;;13.64;100.00;101057.06;5041772;28;20140;-78
2023/08/06 17:55:06;;;;;;;10.02;2.70;;;;;;;13.64;100.00;101066.03;5029253;28;20026;-75
2023/08/06 17:57:31;;;;;;;11.98;3.17;;;;;;;13.68;100.00;101060.09;5011483;28;20057;-74
2023/08/06 17:59:56;;;;;;;8.85;2.20;;;;;;;13.65;100.00;101077.75;5023590;28;20025;-76
2023/08/06 18:02:22;;;;;;;7.60;1.88;;;;;;;13.67;100.00;101072.06;5026228;28;20041;-74
2023/08/06 18:04:47;;;;;;;11.82;2.50;;;;;;;13.63;100.00;101069.84;5034990;28;20065;-72
2023/08/06 18:07:13;;;;;;;10.05;2.20;;;;;;;13.61;100.00;101082.81;5033347;28;20029;-78
2023/08/06 18:09:39;;;;;;;7.80;2.20;;;;;;;13.59;100.00;101084.16;5052394;28;20041;-75
2023/08/06 18:12:04;;;;;;;8.52;1.95;;;;;;;13.57;100.00;101078.97;5055406;28;20045;-75
2023/08/06 18:14:30;;;;;;;7.13;2.30;;;;;;;13.54;100.00;101090.31;5054489;28;20021;-76
2023/08/06 18:16:55;;;;;;;5.20;1.73;;;;;;;13.53;100.00;101075.06;5054748;28;20383;-74
2023/08/06 18:19:20;;;;;;;10.20;2.35;;;;;;;13.50;100.00;101082.84;5055456;28;20603;-75
2023/08/06 18:21:46;;;;;;;7.45;2.03;;;;;;;13.46;100.00;101090.66;5047960;28;20029;-75
2023/08/06 18:24:11;;;;;;;7.35;2.00;;;;;;;13.46;100.00;101077.06;5035605;28;20029;-75
2023/08/06 18:26:36;;;;;;;11.30;2.40;;;;;;;13.46;100.00;101087.94;5034622;28;20029;-75
2023/08/06 18:29:02;;;;;;;8.23;2.08;;;;;;;13.45;100.00;101075.41;5034377;28;20036;-73
2023/08/06 18:31:28;;;;;;;7.90;2.30;;;;;;;13.44;100.00;101082.75;5028832;28;20033;-74
2023/08/06 18:33:53;;;;;;;8.35;2.13;;;;;;;13.51;100.00;101074.44;5036316;28;20030;-77
2023/08/06 18:36:18;;;;;;;8.50;2.28;;;;;;;13.51;100.00;101079.88;5014783;28;20049;-76
2023/08/06 18:38:48;;;;;;;10.70;2.20;;;;;;;13.57;100.00;101076.22;5042373;28;20463;-72
2023/08/06 18:41:13;;;;;;;8.63;2.47;;;;;;;13.54;100.00;101079.44;5038537;28;20537;-74
2023/08/06 18:43:39;;;;;;;10.65;2.50;;;;;;;13.54;100.00;101079.44;5034592;28;20097;-73
2023/08/06 18:46:04;;;;;;;12.40;2.47;;;;;;;13.51;100.00;101077.16;5035348;28;20025;-72
2023/08/06 18:48:31;;;;;;;9.15;2.88;;;;;;;13.53;100.00;101077.78;5035102;28;20360;-73
2023/08/06 18:50:57;;;;;;;11.27;2.50;;;;;;;13.53;100.00;101083.22;5041795;28;20045;-73
2023/08/06 18:53:22;;;;;;;9.43;2.53;;;;;;;13.57;100.00;101088.97;5054569;28;20511;-74
2023/08/06 18:55:49;;;;;;;7.90;2.10;;;;;;;13.57;100.00;101092.56;5045537;28;20220;-71
2023/08/06 18:58:15;;;;;;;10.27;2.55;;;;;;;13.57;100.00;101089.84;5035211;28;20033;-72
2023/08/06 19:00:41;;;;;;;8.98;2.40;;;;;;;13.57;100.00;101084.41;5029857;28;20013;-73
2023/08/06 19:03:08;;;;;;;8.82;2.38;;;;;;;13.60;100.00;101086.63;5033597;28;20038;-72
2023/08/06 19:05:35;;;;;;;11.63;2.53;;;;;;;13.64;100.00;101087.78;5037625;28;20033;-73
2023/08/06 19:08:01;;;;;;;11.05;2.60;;;;;;;13.60;100.00;101094.78;5034132;28;20512;-73
2023/08/06 19:10:27;;;;;;;10.82;2.78;;;;;;;13.61;100.00;101095.59;5031125;28;20104;-74
2023/08/06 19:12:53;;;;;;;7.20;2.25;;;;;;;13.60;100.00;101099.38;5032356;28;20164;-72
2023/08/06 19:15:19;;;;;;;7.38;2.38;;;;;;;13.62;100.00;101100.00;5033520;28;20045;-73
2023/08/06 19:17:45;;;;;;;8.60;2.42;;;;;;;13.60;100.00;101102.94;5034304;28;20026;-74
2023/08/06 19:20:11;;;;;;;7.75;2.47;;;;;;;13.55;100.00;101113.69;5033380;28;20029;-74
2023/08/06 19:22:36;;;;;;;8.43;2.50;;;;;;;13.56;100.00;101099.03;5025045;28;20458;-74
2023/08/06 19:25:02;;;;;;;10.38;2.50;;;;;;;13.57;100.00;101121.63;5021800;28;20036;-73
2023/08/06 19:27:27;;;;;;;10.45;2.75;;;;;;;13.49;100.00;101125.53;5034016;28;20475;-74
2023/08/06 19:29:53;;;;;;;7.22;2.10;;;;;;;13.41;100.00;101128.63;5035175;28;20056;-74
2023/08/06 19:32:18;;;;;;;5.63;2.08;;;;;;;13.37;100.00;101132.88;5032398;28;20021;-74
2023/08/06 19:34:44;;;;;;;7.43;1.92;;;;;;;13.27;100.00;101134.25;5033496;28;20040;-74
2023/08/06 19:37:09;;;;;;;7.50;1.73;;;;;;;13.20;100.00;101132.72;5033037;28;20029;-74
2023/08/06 19:39:34;;;;;;;6.03;1.60;;;;;;;13.13;100.00;101132.81;5041085;28;20522;-74
2023/08/06 19:42:00;;;;;;;6.55;1.80;;;;;;;13.09;100.00;101134.38;5014681;28;20036;-73
2023/08/06 19:44:26;;;;;;;5.70;1.58;;;;;;;13.06;100.00;101143.81;5014210;28;20453;-74
2023/08/06 19:46:51;;;;;;;8.90;2.28;;;;;;;13.04;100.00;101145.09;5014299;28;20026;-74
2023/08/06 19:49:16;;;;;;;7.80;2.22;;;;;;;13.07;100.00;101136.47;5014356;28;20113;-78
2023/08/06 19:51:42;;;;;;;6.07;1.95;;;;;;;13.09;100.00;101134.38;5031067;28;20056;-75
2023/08/06 19:54:08;;;;;;;4.50;1.85;;;;;;;13.05;100.00;101136.72;5031678;28;20448;-76
2023/08/06 19:56:33;;;;;;;5.97;1.90;;;;;;;13.06;100.00;101132.13;5032659;28;20029;-75
2023/08/06 19:58:58;;;;;;;6.20;1.73;;;;;;;13.04;100.00;101128.78;5049726;28;20021;-75
2023/08/06 20:01:27;;;;;;;7.10;1.95;;;;;;;13.06;100.00;101122.06;5030798;28;20053;-76
2023/08/06 20:03:52;;;;;;;5.55;1.92;;;;;;;13.07;100.00;101123.75;5034285;28;20029;-74
2023/08/06 20:06:18;;;;;;;6.35;2.10;;;;;;;13.03;100.00;101129.84;5032525;28;20025;-74
2023/08/06 20:08:43;;;;;;;6.97;2.00;;;;;;;13.01;100.00;101126.53;5032671;28;20108;-75
2023/08/06 20:11:08;;;;;;;10.10;2.72;;;;;;;13.00;100.00;101122.16;5033944;28;20060;-76
2023/08/06 20:13:34;;;;;;;10.82;2.72;;;;;;;12.99;100.00;101128.69;5033423;28;20033;-74
2023/08/06 20:16:01;;;;;;;6.93;2.38;;;;;;;13.01;100.00;101130.06;5032818;28;20021;-75
2023/08/06 20:18:26;;;;;;;11.85;2.63;;;;;;;13.00;100.00;101127.59;5032260;28;20471;-76
2023/08/06 20:20:52;;;;;;;14.02;2.97;;;;;;;13.05;100.00;101125.84;5032289;28;20064;-75
2023/08/06 20:23:18;;;;;;;12.80;3.45;;;;;;;13.02;100.00;101128.22;5033597;28;20060;-75
2023/08/06 20:25:44;;;;;;;9.57;2.30;;;;;;;12.97;100.00;101130.78;5033517;28;20057;-75
2023/08/06 20:28:09;;;;;;;10.15;2.80;;;;;;;13.00;100.00;101130.31;5033874;28;20349;-75
